createdAt,value
2018-07-21T00:01:56.879Z,6.28
2018-07-21T00:04:26.144Z,5.90
2018-07-21T00:06:55.065Z,7.05
2018-07-21T00:09:24.194Z,7.53
2018-07-21T00:11:57.168Z,7.00
2018-07-21T00:14:26.424Z,8.48
2018-07-21T00:16:55.687Z,6.97
2018-07-21T00:19:24.916Z,6.28
2018-07-21T00:21:54.311Z,9.10
2018-07-21T00:24:24.322Z,8.05
2018-07-21T00:26:54.244Z,9.33
2018-07-21T00:29:23.905Z,5.95
2018-07-21T00:31:52.968Z,7.42
2018-07-21T00:34:22.228Z,9.03
2018-07-21T00:36:51.486Z,8.83
2018-07-21T00:39:20.764Z,10.38
2018-07-21T00:41:50.591Z,8.28
2018-07-21T00:44:20.478Z,9.73
2018-07-21T00:46:49.784Z,11.43
2018-07-21T00:49:19.090Z,10.18
2018-07-21T00:51:48.359Z,10.15
2018-07-21T00:54:17.304Z,9.40
2018-07-21T00:56:46.435Z,9.45
2018-07-21T00:59:16.148Z,9.63
2018-07-21T01:01:45.571Z,9.25
2018-07-21T01:04:14.840Z,7.87
2018-07-21T01:06:44.129Z,8.83
2018-07-21T01:09:13.401Z,8.80
2018-07-21T01:11:43.683Z,7.22
2018-07-21T01:14:12.882Z,8.28
2018-07-21T01:16:42.509Z,14.30
2018-07-21T01:19:11.831Z,8.03
2018-07-21T01:21:42.536Z,7.20
2018-07-21T01:24:11.906Z,9.65
2018-07-21T01:26:41.517Z,10.10
2018-07-21T01:29:10.821Z,9.10
2018-07-21T01:31:40.134Z,7.75
2018-07-21T01:34:10.151Z,7.80
2018-07-21T01:36:39.489Z,7.25
2018-07-21T01:39:10.192Z,9.75
2018-07-21T01:41:40.307Z,8.70
2018-07-21T01:44:10.170Z,8.88
2018-07-21T01:46:39.572Z,9.13
2018-07-21T01:49:08.882Z,8.30
2018-07-21T01:51:38.775Z,9.10
2018-07-21T01:54:08.054Z,8.50
2018-07-21T01:56:38.287Z,9.93
2018-07-21T01:59:07.607Z,9.30
2018-07-21T02:01:38.080Z,8.98
2018-07-21T02:04:07.492Z,9.68
2018-07-21T02:06:36.959Z,8.98
2018-07-21T02:09:08.566Z,8.08
2018-07-21T02:11:37.924Z,9.75
2018-07-21T02:14:07.401Z,8.98
2018-07-21T02:16:37.012Z,10.20
2018-07-21T02:19:06.248Z,10.18
2018-07-21T02:21:36.233Z,9.30
2018-07-21T02:24:05.233Z,9.15
2018-07-21T02:26:34.374Z,10.15
2018-07-21T02:29:03.668Z,9.03
2018-07-21T02:31:33.024Z,10.65
2018-07-21T02:34:03.041Z,8.60
2018-07-21T02:36:32.311Z,9.73
2018-07-21T02:39:01.573Z,11.45
2018-07-21T02:41:30.839Z,9.95
2018-07-21T02:44:00.159Z,11.90
2018-07-21T02:46:29.468Z,9.43
2018-07-21T02:49:00.115Z,10.93
2018-07-21T02:51:29.681Z,8.60
2018-07-21T02:53:58.968Z,9.48
2018-07-21T02:56:28.231Z,8.80
2018-07-21T02:58:57.469Z,8.05
2018-07-21T03:01:27.339Z,9.95
2018-07-21T03:03:57.463Z,9.55
2018-07-21T03:06:26.745Z,9.88
2018-07-21T03:08:56.028Z,9.60
2018-07-21T03:11:25.322Z,9.00
2018-07-21T03:13:54.742Z,7.70
2018-07-21T03:16:25.260Z,8.90
2018-07-21T03:18:54.554Z,8.25
2018-07-21T03:21:24.036Z,9.33
2018-07-21T03:23:53.329Z,8.60
2018-07-21T03:26:23.440Z,7.65
2018-07-21T03:28:52.647Z,7.95
2018-07-21T03:31:21.882Z,8.50
2018-07-21T03:33:51.536Z,11.55
2018-07-21T03:36:20.794Z,10.03
2018-07-21T03:38:50.939Z,9.58
2018-07-21T03:41:21.369Z,9.83
2018-07-21T03:43:50.567Z,8.10
2018-07-21T03:46:19.906Z,7.60
2018-07-21T03:48:49.311Z,8.85
2018-07-21T03:51:18.599Z,9.78
2018-07-21T03:53:48.115Z,9.33
2018-07-21T03:56:17.344Z,10.20
2018-07-21T03:58:46.543Z,10.05
2018-07-21T04:01:15.792Z,9.15
2018-07-21T04:03:44.694Z,10.23
2018-07-21T04:06:13.901Z,9.85
2018-07-21T04:08:43.024Z,9.40
2018-07-21T04:11:12.315Z,8.85
2018-07-21T04:13:42.408Z,9.53
2018-07-21T04:16:11.838Z,8.15
2018-07-21T04:18:40.896Z,9.73
2018-07-21T04:21:10.049Z,9.83
2018-07-21T04:23:39.338Z,8.63
2018-07-21T04:26:08.625Z,8.43
2018-07-21T04:28:38.315Z,9.35
2018-07-21T04:31:07.473Z,8.70
2018-07-21T04:33:36.915Z,9.80
2018-07-21T04:36:06.512Z,9.15
2018-07-21T04:38:35.864Z,9.78
2018-07-21T04:41:05.125Z,8.93
2018-07-21T04:43:34.722Z,9.33
2018-07-21T04:46:04.021Z,9.65
2018-07-21T04:48:32.937Z,11.03
2018-07-21T04:51:02.114Z,10.03
2018-07-21T04:53:31.646Z,9.70
2018-07-21T04:56:00.866Z,10.45
2018-07-21T04:58:30.220Z,10.40
2018-07-21T05:01:02.990Z,9.95
2018-07-21T05:03:32.699Z,11.25
2018-07-21T05:06:02.713Z,9.43
2018-07-21T05:08:31.985Z,12.58
2018-07-21T05:11:01.900Z,13.93
2018-07-21T05:13:31.947Z,13.60
2018-07-21T05:16:01.132Z,12.80
2018-07-21T05:18:31.128Z,11.08
2018-07-21T05:21:00.802Z,11.03
2018-07-21T05:23:31.216Z,12.23
2018-07-21T05:26:01.725Z,14.47
2018-07-21T05:28:31.070Z,12.80
2018-07-21T05:31:00.344Z,13.40
2018-07-21T05:33:30.235Z,14.15
2018-07-21T05:35:59.439Z,12.70
2018-07-21T05:38:29.391Z,13.93
2018-07-21T05:41:00.058Z,13.00
2018-07-21T05:43:29.343Z,13.48
2018-07-21T05:45:58.904Z,14.75
2018-07-21T05:48:28.172Z,15.35
2018-07-21T05:50:57.455Z,15.40
2018-07-21T05:53:26.835Z,15.32
2018-07-21T05:55:56.399Z,17.23
2018-07-21T05:58:25.934Z,17.65
2018-07-21T06:00:55.290Z,17.05
2018-07-21T06:03:24.506Z,16.42
2018-07-21T06:05:53.763Z,18.77
2018-07-21T06:08:23.020Z,16.67
2018-07-21T06:10:53.433Z,16.60
2018-07-21T06:13:22.633Z,17.00
2018-07-21T06:15:51.934Z,16.20
2018-07-21T06:18:21.872Z,18.02
2018-07-21T06:20:51.523Z,16.93
2018-07-21T06:23:21.833Z,17.95
2018-07-21T06:25:50.740Z,17.82
2018-07-21T06:28:20.224Z,16.27
2018-07-21T06:30:49.493Z,12.68
2018-07-21T06:33:19.403Z,15.50
2018-07-21T06:35:48.991Z,16.73
2018-07-21T06:38:18.275Z,16.32
2018-07-21T06:40:47.554Z,15.05
2018-07-21T06:43:16.804Z,13.90
2018-07-21T06:45:46.906Z,15.08
2018-07-21T06:48:18.849Z,14.50
2018-07-21T06:50:48.991Z,14.53
2018-07-21T06:53:18.565Z,15.03
2018-07-21T06:55:48.359Z,12.70
2018-07-21T06:58:17.627Z,14.90
2018-07-21T07:00:48.712Z,14.75
2018-07-21T07:03:18.457Z,15.15
2018-07-21T07:05:48.089Z,12.70
2018-07-21T07:08:17.368Z,16.77
2018-07-21T07:10:46.619Z,15.18
2018-07-21T07:13:16.952Z,18.10
2018-07-21T07:15:47.131Z,16.60
2018-07-21T07:18:17.349Z,16.52
2018-07-21T07:20:47.814Z,14.05
2018-07-21T07:23:18.789Z,14.45
2018-07-21T07:25:48.021Z,13.88
2018-07-21T07:28:17.280Z,13.43
2018-07-21T07:30:46.500Z,13.25
2018-07-21T07:33:15.788Z,15.85
2018-07-21T07:35:45.734Z,17.90
2018-07-21T07:38:15.132Z,26.97
2018-07-21T07:40:44.397Z,13.70
2018-07-21T07:43:13.687Z,13.62
2018-07-21T07:45:46.776Z,14.03
2018-07-21T07:48:16.120Z,13.40
2018-07-21T07:50:45.331Z,13.68
2018-07-21T07:53:14.725Z,14.43
2018-07-21T07:55:43.973Z,16.23
2018-07-21T07:58:13.483Z,16.42
2018-07-21T08:00:42.701Z,18.32
2018-07-21T08:03:11.956Z,14.90
2018-07-21T08:05:41.209Z,27.73
2018-07-21T08:08:12.012Z,16.97
2018-07-21T08:10:42.220Z,14.73
2018-07-21T08:13:12.668Z,14.28
2018-07-21T08:15:41.947Z,15.32
2018-07-21T08:18:10.974Z,14.07
2018-07-21T08:20:41.209Z,14.38
2018-07-21T08:23:11.872Z,13.18
2018-07-21T08:25:41.159Z,14.15
2018-07-21T08:28:11.887Z,15.05
2018-07-21T08:30:41.391Z,15.08
2018-07-21T08:33:12.879Z,14.25
2018-07-21T08:35:42.651Z,13.68
2018-07-21T08:38:12.094Z,13.25
2018-07-21T08:40:42.122Z,13.75
2018-07-21T08:43:11.478Z,12.30
2018-07-21T08:45:40.457Z,13.50
2018-07-21T08:48:09.587Z,13.50
2018-07-21T08:50:40.027Z,11.97
2018-07-21T08:53:14.629Z,12.33
2018-07-21T08:55:44.015Z,12.25
2018-07-21T08:58:13.363Z,11.12
2018-07-21T09:00:42.837Z,11.57
2018-07-21T09:03:12.480Z,13.53
2018-07-21T09:05:42.454Z,14.87
2018-07-21T09:08:12.444Z,11.50
2018-07-21T09:10:41.668Z,13.80
2018-07-21T09:13:11.276Z,11.73
2018-07-21T09:15:40.517Z,14.07
2018-07-21T09:18:09.541Z,15.60
2018-07-21T09:20:39.255Z,14.23
2018-07-21T09:23:11.122Z,12.80
2018-07-21T09:25:40.515Z,14.30
2018-07-21T09:28:11.179Z,14.98
2018-07-21T09:30:40.539Z,14.85
2018-07-21T09:33:10.007Z,15.65
2018-07-21T09:35:40.018Z,12.33
2018-07-21T09:38:09.421Z,12.68
2018-07-21T09:40:38.869Z,17.05
2018-07-21T09:43:09.884Z,14.25
2018-07-21T09:45:40.446Z,13.18
2018-07-21T09:48:10.117Z,17.15
2018-07-21T09:50:40.676Z,14.38
2018-07-21T09:53:10.180Z,13.48
2018-07-21T09:55:39.695Z,14.98
2018-07-21T09:58:08.943Z,14.43
2018-07-21T10:00:43.555Z,14.55
2018-07-21T10:03:13.290Z,15.45
2018-07-21T10:05:43.337Z,13.90
2018-07-21T10:08:12.737Z,15.20
2018-07-21T10:10:42.282Z,14.00
2018-07-21T10:13:11.999Z,12.85
2018-07-21T10:15:41.853Z,13.13
2018-07-21T10:18:13.423Z,15.75
2018-07-21T10:20:42.912Z,14.18
2018-07-21T10:23:12.640Z,12.33
2018-07-21T10:25:48.414Z,10.98
2018-07-21T10:28:23.414Z,13.45
2018-07-21T10:30:52.920Z,15.50
2018-07-21T10:33:24.002Z,13.95
2018-07-21T10:35:53.791Z,13.43
2018-07-21T10:38:24.098Z,11.12
2018-07-21T10:40:55.207Z,10.63
2018-07-21T10:43:24.460Z,8.28
2018-07-21T10:45:53.768Z,8.28
2018-07-21T10:48:23.333Z,9.03
2018-07-21T10:50:53.632Z,10.23
2018-07-21T10:53:22.798Z,9.48
2018-07-21T10:55:53.045Z,7.97
2018-07-21T10:58:23.054Z,9.68
2018-07-21T11:00:52.511Z,8.85
2018-07-21T11:03:21.789Z,10.85
2018-07-21T11:05:51.304Z,9.85
2018-07-21T11:08:20.571Z,8.15
2018-07-21T11:10:49.854Z,9.60
2018-07-21T11:13:20.723Z,10.98
2018-07-21T11:15:50.424Z,10.10
2018-07-21T11:18:20.175Z,8.15
2018-07-21T11:20:50.399Z,10.00
2018-07-21T11:23:20.187Z,10.85
2018-07-21T11:25:49.581Z,10.38
2018-07-21T11:28:19.279Z,9.45
2018-07-21T11:30:50.488Z,8.48
2018-07-21T11:33:20.267Z,8.85
2018-07-21T11:35:53.591Z,9.23
2018-07-21T11:38:28.079Z,10.32
2018-07-21T11:40:57.366Z,9.18
2018-07-21T11:43:27.220Z,8.25
2018-07-21T11:45:59.002Z,10.43
2018-07-21T11:48:27.982Z,8.08
2018-07-21T11:51:01.550Z,9.65
2018-07-21T11:53:32.259Z,7.83
2018-07-21T11:56:01.631Z,9.10
2018-07-21T11:58:31.922Z,8.88
2018-07-21T12:01:01.150Z,10.72
2018-07-21T12:03:31.688Z,10.23
2018-07-21T12:06:01.779Z,10.20
2018-07-21T12:08:31.250Z,9.03
2018-07-21T12:11:01.006Z,9.35
2018-07-21T12:13:30.415Z,8.08
2018-07-21T12:16:00.249Z,8.63
2018-07-21T12:18:30.659Z,9.33
2018-07-21T12:21:01.612Z,9.00
2018-07-21T12:23:31.366Z,9.80
2018-07-21T12:26:02.256Z,9.23
2018-07-21T12:28:34.015Z,8.38
2018-07-21T12:31:06.599Z,9.15
2018-07-21T12:33:37.349Z,8.23
2018-07-21T12:36:08.316Z,8.23
2018-07-21T12:38:38.489Z,8.18
2018-07-21T12:41:09.603Z,8.50
2018-07-21T12:43:39.243Z,8.10
2018-07-21T12:46:08.543Z,8.70
2018-07-21T12:48:37.834Z,9.60
2018-07-21T12:51:07.111Z,10.08
2018-07-21T12:53:36.453Z,8.55
2018-07-21T12:56:06.871Z,8.88
2018-07-21T12:58:36.110Z,8.03
2018-07-21T13:01:05.756Z,8.70
2018-07-21T13:03:36.067Z,10.15
2018-07-21T13:06:06.283Z,9.80
2018-07-21T13:08:35.524Z,8.55
2018-07-21T13:11:04.772Z,8.55
2018-07-21T13:13:34.281Z,9.55
2018-07-21T13:16:03.969Z,9.48
2018-07-21T13:18:33.333Z,10.15
2018-07-21T13:21:02.599Z,8.65
2018-07-21T13:23:31.862Z,9.43
2018-07-21T13:26:00.858Z,9.10
2018-07-21T13:28:30.854Z,8.98
2018-07-21T13:31:05.510Z,9.48
2018-07-21T13:33:35.248Z,9.00
2018-07-21T13:36:04.496Z,10.98
2018-07-21T13:38:34.425Z,9.48
2018-07-21T13:41:03.822Z,9.08
2018-07-21T13:43:33.070Z,9.93
2018-07-21T13:46:02.352Z,10.28
2018-07-21T13:48:32.557Z,9.30
2018-07-21T13:51:02.053Z,10.80
2018-07-21T13:53:31.300Z,11.03
2018-07-21T13:56:00.791Z,10.30
2018-07-21T13:58:30.355Z,10.98
2018-07-21T14:00:59.673Z,8.68
2018-07-21T14:03:29.033Z,8.70
2018-07-21T14:05:59.375Z,9.13
2018-07-21T14:08:28.993Z,9.55
2018-07-21T14:10:58.254Z,9.55
2018-07-21T14:13:28.673Z,8.28
2018-07-21T14:16:02.749Z,11.80
2018-07-21T14:18:37.151Z,9.83
2018-07-21T14:21:06.416Z,8.95
2018-07-21T14:23:37.020Z,7.75
2018-07-21T14:26:06.545Z,8.70
2018-07-21T14:28:37.223Z,9.15
2018-07-21T14:31:10.944Z,8.53
2018-07-21T14:33:41.783Z,9.70
2018-07-21T14:36:11.141Z,8.85
2018-07-21T14:38:41.403Z,8.85
2018-07-21T14:41:10.749Z,8.98
2018-07-21T14:43:46.178Z,8.93
2018-07-21T14:46:15.491Z,9.60
2018-07-21T14:48:45.468Z,8.50
2018-07-21T14:51:15.804Z,10.75
2018-07-21T14:53:50.706Z,9.75
2018-07-21T14:56:22.465Z,8.13
2018-07-21T14:58:53.407Z,7.05
2018-07-21T15:01:24.531Z,7.12
2018-07-21T15:03:54.793Z,8.55
2018-07-21T15:06:26.748Z,9.73
2018-07-21T15:08:57.672Z,8.53
2018-07-21T15:11:27.890Z,9.63
2018-07-21T15:13:57.607Z,9.80
2018-07-21T15:16:27.496Z,9.35
2018-07-21T15:18:58.456Z,9.98
2018-07-21T15:21:29.227Z,10.28
2018-07-21T15:23:58.660Z,8.45
2018-07-21T15:26:32.109Z,13.22
2018-07-21T15:29:01.930Z,12.13
2018-07-21T15:31:35.157Z,11.95
2018-07-21T15:34:06.759Z,13.08
2018-07-21T15:36:37.406Z,13.58
2018-07-21T15:39:10.643Z,14.70
2018-07-21T15:41:41.019Z,14.83
2018-07-21T15:44:13.493Z,12.25
2018-07-21T15:46:43.369Z,16.82
2018-07-21T15:49:17.553Z,15.13
2018-07-21T15:51:46.984Z,16.55
2018-07-21T15:54:16.494Z,16.73
2018-07-21T15:56:46.221Z,17.07
2018-07-21T15:59:20.426Z,15.30
2018-07-21T16:01:51.883Z,18.52
2018-07-21T16:04:22.055Z,20.60
2018-07-21T16:09:31.924Z,18.98
2018-07-21T16:12:00.814Z,16.02
2018-07-21T16:14:30.735Z,19.10
2018-07-21T16:17:02.092Z,15.23
2018-07-21T16:19:31.524Z,16.75
2018-07-21T16:22:01.436Z,18.17
2018-07-21T16:24:37.109Z,15.55
2018-07-21T16:27:06.640Z,13.90
2018-07-21T16:29:36.017Z,14.78
2018-07-21T16:32:05.299Z,15.63
2018-07-21T16:34:34.645Z,14.70
2018-07-21T16:37:06.501Z,14.85
2018-07-21T16:39:36.084Z,14.83
2018-07-21T16:42:05.539Z,17.12
2018-07-21T16:44:35.517Z,16.85
2018-07-21T16:47:05.336Z,15.60
2018-07-21T16:49:36.568Z,15.13
2018-07-21T16:52:11.195Z,17.62
2018-07-21T16:54:41.464Z,14.98
2018-07-21T16:57:16.409Z,14.83
2018-07-21T16:59:45.668Z,14.40
2018-07-21T17:02:17.156Z,15.70
2018-07-21T17:04:49.448Z,15.25
2018-07-21T17:07:19.506Z,12.98
2018-07-21T17:09:48.791Z,16.00
2018-07-21T17:12:19.180Z,18.00
2018-07-21T17:14:49.886Z,17.85
2018-07-21T17:17:20.196Z,18.95
2018-07-21T17:19:50.322Z,18.15
2018-07-21T17:22:20.511Z,17.48
2018-07-21T17:24:52.871Z,16.75
2018-07-21T17:27:23.235Z,16.00
2018-07-21T17:29:52.409Z,17.85
2018-07-21T17:32:23.752Z,17.55
2018-07-21T17:34:54.440Z,15.58
2018-07-21T17:37:24.408Z,15.43
2018-07-21T17:39:56.238Z,15.60
2018-07-21T17:42:27.343Z,15.93
2018-07-21T17:44:57.083Z,15.30
2018-07-21T17:47:27.909Z,17.55
2018-07-21T17:49:58.256Z,15.63
2018-07-21T17:52:29.833Z,16.37
2018-07-21T17:55:01.745Z,15.15
2018-07-21T17:57:31.734Z,15.23
2018-07-21T18:00:05.545Z,15.65
2018-07-21T18:02:38.664Z,15.93
2018-07-21T18:05:11.121Z,15.63
2018-07-21T18:07:46.722Z,15.83
2018-07-21T18:10:19.448Z,16.40
2018-07-21T18:12:51.627Z,15.50
2018-07-21T18:15:23.025Z,14.63
2018-07-21T18:17:53.312Z,14.83
2018-07-21T18:20:29.174Z,14.40
2018-07-21T18:23:08.044Z,12.50
2018-07-21T18:25:39.427Z,12.20
2018-07-21T18:28:09.570Z,11.57
2018-07-21T18:30:44.182Z,12.30
2018-07-21T18:33:14.001Z,13.18
2018-07-21T18:35:53.126Z,13.25
2018-07-21T18:38:25.020Z,12.00
2018-07-21T18:40:59.004Z,11.68
2018-07-21T18:43:33.331Z,12.23
2018-07-21T18:46:06.402Z,10.70
2018-07-21T18:48:38.353Z,12.05
2018-07-21T18:51:10.346Z,11.45
2018-07-21T18:53:41.508Z,12.53
2018-07-21T18:56:12.659Z,10.90
2018-07-21T18:58:41.970Z,10.55
2018-07-21T19:01:14.126Z,10.40
2018-07-21T19:03:43.423Z,11.40
2018-07-21T19:06:14.348Z,10.80
2018-07-21T19:08:51.774Z,10.08
2018-07-21T19:11:23.286Z,9.65
2018-07-21T19:13:54.012Z,10.40
2018-07-21T19:16:40.535Z,9.88
2018-07-21T19:19:10.767Z,9.23
2018-07-21T19:21:46.214Z,9.88
2018-07-21T19:24:22.455Z,9.50
2018-07-21T19:26:59.531Z,9.33
2018-07-21T19:29:31.988Z,9.23
2018-07-21T19:32:07.590Z,9.68
2018-07-21T19:34:41.408Z,9.45
2018-07-21T19:37:17.965Z,11.25
2018-07-21T19:39:48.342Z,8.28
2018-07-21T19:42:19.822Z,9.88
2018-07-21T19:44:52.037Z,9.90
2018-07-21T19:47:22.625Z,9.50
2018-07-21T19:49:52.730Z,11.10
2018-07-21T19:52:21.931Z,10.48
2018-07-21T19:54:50.744Z,9.83
2018-07-21T19:57:19.919Z,10.68
2018-07-21T19:59:49.379Z,10.48
2018-07-21T20:02:19.452Z,11.05
2018-07-21T20:04:54.279Z,10.88
2018-07-21T20:07:23.475Z,13.05
2018-07-21T20:09:53.953Z,12.30
2018-07-21T20:12:24.439Z,12.60
2018-07-21T20:14:53.807Z,14.15
2018-07-21T20:17:27.448Z,15.55
2018-07-21T20:20:00.082Z,13.98
2018-07-21T20:22:32.427Z,17.23
2018-07-21T20:25:01.831Z,18.45
2018-07-21T20:27:31.680Z,17.48
2018-07-21T20:30:05.720Z,18.17
2018-07-21T20:32:43.849Z,19.57
2018-07-21T20:35:12.760Z,16.77
2018-07-21T20:37:41.904Z,17.60
2018-07-21T20:40:11.588Z,19.00
2018-07-21T20:42:41.940Z,20.27
2018-07-21T20:45:13.135Z,17.52
2018-07-21T20:47:42.994Z,19.40
2018-07-21T20:50:12.676Z,18.67
2018-07-21T20:52:42.047Z,19.65
2018-07-21T20:55:11.568Z,20.08
2018-07-21T20:57:47.004Z,19.17
2018-07-21T21:00:16.728Z,21.07
2018-07-21T21:02:50.308Z,20.48
2018-07-21T21:05:19.634Z,22.25
2018-07-21T21:10:24.098Z,20.00
2018-07-21T21:12:54.230Z,19.77
2018-07-21T21:15:23.120Z,21.68
2018-07-21T21:17:52.980Z,20.62
2018-07-21T21:20:22.523Z,20.12
2018-07-21T21:22:58.357Z,19.23
2018-07-21T21:25:32.326Z,18.67
2018-07-21T21:28:10.461Z,20.50
2018-07-21T21:30:39.991Z,20.35
2018-07-21T21:33:09.274Z,23.38
2018-07-21T21:35:41.537Z,21.17
2018-07-21T21:38:12.880Z,22.10
2018-07-21T21:40:42.148Z,21.93
2018-07-21T21:43:13.535Z,22.25
2018-07-21T21:45:43.462Z,21.97
2018-07-21T21:48:13.024Z,21.95
2018-07-21T21:50:43.032Z,20.95
2018-07-21T21:53:12.738Z,23.07
2018-07-21T21:55:46.595Z,21.97
2018-07-21T21:58:28.852Z,22.70
2018-07-21T22:01:06.672Z,23.70
2018-07-21T22:03:42.135Z,22.93
2018-07-21T22:06:12.046Z,23.73
2018-07-21T22:08:41.622Z,24.55
2018-07-21T22:11:11.006Z,24.32
2018-07-21T22:13:41.279Z,22.90
2018-07-21T22:16:12.750Z,22.93
2018-07-21T22:18:41.705Z,23.80
2018-07-21T22:21:11.598Z,23.15
2018-07-21T22:23:41.542Z,22.45
2018-07-21T22:26:14.993Z,24.95
2018-07-21T22:28:52.185Z,23.10
2018-07-21T22:31:22.427Z,21.70
2018-07-21T22:33:58.583Z,22.37
2018-07-21T22:36:31.080Z,22.02
2018-07-21T22:39:01.801Z,21.37
2018-07-21T22:41:35.451Z,20.40
2018-07-21T22:44:05.085Z,19.48
2018-07-21T22:49:05.011Z,17.67
2018-07-21T22:51:33.959Z,18.07
2018-07-21T22:54:03.112Z,17.37
2018-07-21T22:56:34.192Z,17.23
2018-07-21T22:59:16.818Z,15.90
2018-07-21T23:01:46.638Z,15.80
2018-07-21T23:04:17.190Z,16.32
2018-07-21T23:06:48.083Z,16.02
2018-07-21T23:09:23.266Z,17.52
2018-07-21T23:11:52.540Z,16.07
2018-07-21T23:14:22.067Z,18.07
2018-07-21T23:16:51.275Z,16.32
2018-07-21T23:19:21.499Z,13.35
2018-07-21T23:21:53.564Z,16.65
2018-07-21T23:24:23.393Z,15.28
2018-07-21T23:26:53.382Z,14.98
2018-07-21T23:29:27.477Z,15.18
2018-07-21T23:31:57.626Z,15.30
2018-07-21T23:34:27.095Z,15.10
2018-07-21T23:39:32.880Z,18.62
2018-07-21T23:42:02.139Z,16.93
2018-07-21T23:44:32.800Z,17.00
2018-07-21T23:47:02.451Z,17.23
2018-07-21T23:49:33.804Z,15.38
2018-07-21T23:52:06.131Z,15.13
2018-07-21T23:54:35.431Z,15.90
2018-07-21T23:57:06.524Z,15.05
2018-07-21T23:59:37.551Z,14.43
